Time;durP1;ratioP1;P1;durP2;ratioP2;P2;SDS_P1;SDS_P2;PMS_P1;PMS_P2;Temp;Humidity;BMP_temperature;BMP_pressure;BME280_temperature;BME280_humidity;BME280_pressure;Samples;Min_cycle;Max_cycle;Signal;HPM_P1;HPM_P2
2022/06/19 00:01:59;;;;;;;9.07;1.50;;;;;;;10.22;69.58;100961.47;5064166;28;20081;-83
2022/06/19 00:04:25;;;;;;;11.73;1.67;;;;;;;10.22;69.75;100951.75;5085968;28;20027;-82
2022/06/19 00:06:51;;;;;;;7.88;1.55;;;;;;;10.21;69.80;100944.75;5048689;28;20078;-83
2022/06/19 00:09:17;;;;;;;8.85;1.88;;;;;;;10.20;69.73;100952.81;5086453;28;20028;-82
2022/06/19 00:11:43;;;;;;;9.98;1.67;;;;;;;10.17;70.12;100946.00;5086225;28;20024;-83
2022/06/19 00:14:09;;;;;;;9.95;1.60;;;;;;;10.13;69.96;100942.78;5067448;28;20036;-83
2022/06/19 00:16:35;;;;;;;7.25;1.65;;;;;;;10.14;69.93;100940.97;5086237;28;20111;-82
2022/06/19 00:19:03;;;;;;;11.40;1.90;;;;;;;10.10;70.15;100942.19;5068986;28;20122;-82
2022/06/19 00:21:29;;;;;;;8.13;1.55;;;;;;;10.01;70.44;100936.72;5088211;28;20901;-83
2022/06/19 00:23:55;;;;;;;11.35;1.38;;;;;;;9.94;70.74;100924.97;5084881;28;20028;-83
2022/06/19 00:26:21;;;;;;;7.05;1.27;;;;;;;9.85;71.09;100929.25;5086814;28;20449;-84
2022/06/19 00:28:47;;;;;;;13.70;2.83;;;;;;;9.80;71.10;100929.63;5056721;28;20032;-85
2022/06/19 00:31:14;;;;;;;11.15;1.35;;;;;;;9.74;71.74;100922.22;5057281;28;20043;-82
2022/06/19 00:33:41;;;;;;;10.88;1.85;;;;;;;9.68;71.98;100930.66;5086252;28;20115;-82
2022/06/19 00:36:07;;;;;;;11.45;1.60;;;;;;;9.65;72.55;100917.69;5057500;28;20043;-82
2022/06/19 00:38:33;;;;;;;16.05;1.73;;;;;;;9.67;72.40;100915.75;5069610;28;20029;-83
2022/06/19 00:41:00;;;;;;;6.55;1.40;;;;;;;9.65;72.74;100909.78;5091390;28;20032;-82
2022/06/19 00:43:27;;;;;;;8.32;1.63;;;;;;;9.68;72.54;100906.88;5073950;28;20110;-82
2022/06/19 00:45:58;;;;;;;6.47;1.30;;;;;;;9.73;72.72;100909.97;5073365;28;20103;-82
2022/06/19 00:48:31;;;;;;;10.65;2.03;;;;;;;9.78;72.76;100899.88;5071796;28;20036;-83
2022/06/19 00:51:02;;;;;;;10.93;1.75;;;;;;;9.80;72.87;100897.09;5084242;28;20119;-82
2022/06/19 00:53:32;;;;;;;17.52;1.73;;;;;;;9.79;73.29;100896.25;5074737;28;20085;-82
2022/06/19 00:55:59;;;;;;;10.38;2.25;;;;;;;9.81;73.35;100898.75;5040746;28;20036;-82
2022/06/19 00:58:38;;;;;;;8.18;1.38;;;;;;;9.83;73.56;100888.91;5072023;28;20476;-83
2022/06/19 01:01:13;;;;;;;14.38;2.17;;;;;;;9.88;73.27;100883.25;5054528;28;20097;-82
2022/06/19 01:03:50;;;;;;;14.35;1.77;;;;;;;9.95;73.24;100880.94;5073174;28;20027;-83
2022/06/19 01:06:16;;;;;;;12.68;1.90;;;;;;;9.94;73.32;100877.44;5055540;28;20523;-83
2022/06/19 01:08:42;;;;;;;11.50;1.25;;;;;;;9.92;73.48;100869.66;5073623;28;20032;-82
2022/06/19 01:11:09;;;;;;;8.50;1.42;;;;;;;9.91;73.73;100867.16;5055883;28;20119;-83
2022/06/19 01:13:36;;;;;;;11.50;1.70;;;;;;;9.92;73.80;100866.19;5073216;28;20110;-82
2022/06/19 01:16:04;;;;;;;10.25;1.73;;;;;;;9.90;73.76;100854.91;5054290;28;20036;-82
2022/06/19 01:18:33;;;;;;;13.63;2.10;;;;;;;9.89;73.84;100856.72;5071230;28;20084;-82
2022/06/19 01:21:20;;;;;;;18.70;2.20;;;;;;;9.89;74.01;100854.06;5056733;28;20131;-82
2022/06/19 01:24:08;;;;;;;8.90;1.88;;;;;;;9.90;73.95;100858.41;5091761;28;20521;-82
2022/06/19 01:26:41;;;;;;;11.00;1.88;;;;;;;9.95;74.21;100860.66;5086775;28;20116;-83
2022/06/19 01:29:08;;;;;;;9.10;2.53;;;;;;;9.93;74.31;100857.31;5070044;28;20028;-83
2022/06/19 01:31:45;;;;;;;11.73;1.88;;;;;;;9.97;74.21;100868.44;5040341;28;20498;-83
2022/06/19 01:34:27;;;;;;;10.30;1.67;;;;;;;9.96;74.51;100866.75;5070677;28;20032;-82
2022/06/19 01:37:17;;;;;;;12.80;1.88;;;;;;;9.97;74.50;100866.63;5073312;28;20032;-83
2022/06/19 01:40:05;;;;;;;12.45;1.60;;;;;;;9.99;74.69;100874.41;5074231;28;20031;-83
2022/06/19 01:42:32;;;;;;;10.57;2.20;;;;;;;10.01;74.75;100872.50;5071277;28;20044;-83
2022/06/19 01:44:58;;;;;;;11.15;1.83;;;;;;;10.04;74.70;100862.53;5059283;28;20044;-82
2022/06/19 01:47:25;;;;;;;8.80;1.67;;;;;;;10.10;74.94;100878.78;5038748;28;20032;-83
2022/06/19 01:49:54;;;;;;;9.57;1.98;;;;;;;10.12;75.11;100882.16;5073155;28;20117;-83
2022/06/19 01:52:23;;;;;;;14.68;3.42;;;;;;;10.13;75.35;100881.19;5039638;28;20035;-82
2022/06/19 01:55:09;;;;;;;12.43;2.10;;;;;;;10.14;75.20;100875.78;5075835;28;20023;-83
2022/06/19 01:57:40;;;;;;;12.55;2.20;;;;;;;10.20;75.28;100881.50;5093485;28;20038;-83
2022/06/19 02:00:11;;;;;;;8.88;1.48;;;;;;;10.21;75.22;100868.16;5092753;28;20031;-83
2022/06/19 02:02:44;;;;;;;9.15;1.70;;;;;;;10.18;75.70;100863.13;5074059;28;20036;-83
2022/06/19 02:05:10;;;;;;;10.23;1.70;;;;;;;10.14;75.93;100859.09;5067338;28;20032;-83
2022/06/19 02:07:36;;;;;;;7.65;1.73;;;;;;;10.16;76.50;100859.81;5073636;28;20484;-84
2022/06/19 02:10:03;;;;;;;8.73;1.20;;;;;;;10.12;76.32;100853.09;5074161;28;20039;-83
2022/06/19 02:12:31;;;;;;;10.63;1.60;;;;;;;10.12;76.26;100855.72;5048930;28;20036;-83
2022/06/19 02:15:00;;;;;;;13.07;2.92;;;;;;;10.10;76.27;100855.88;5068463;28;20051;-83
2022/06/19 02:17:34;;;;;;;13.43;2.00;;;;;;;10.13;76.34;100855.59;5037815;28;20028;-82
2022/06/19 02:20:00;;;;;;;14.38;2.72;;;;;;;10.15;76.40;100858.13;5071291;28;20051;-83
2022/06/19 02:22:26;;;;;;;12.07;1.67;;;;;;;10.18;76.60;100861.34;5059136;28;20495;-83
2022/06/19 02:24:52;;;;;;;11.00;1.77;;;;;;;10.19;76.51;100854.25;5092832;28;20036;-83
2022/06/19 02:27:18;;;;;;;9.98;1.75;;;;;;;10.24;76.56;100851.22;5054502;28;20043;-83
2022/06/19 02:29:45;;;;;;;7.88;1.52;;;;;;;10.28;76.44;100853.47;5090324;28;20036;-83
2022/06/19 02:32:23;;;;;;;15.18;2.45;;;;;;;10.27;76.46;100864.97;5058318;28;20048;-82
2022/06/19 02:34:50;;;;;;;12.57;2.15;;;;;;;10.28;76.37;100866.66;5052862;28;20035;-83
2022/06/19 02:37:21;;;;;;;15.82;2.25;;;;;;;10.29;76.76;100862.19;5074254;28;20133;-82
2022/06/19 02:40:00;;;;;;;13.95;1.95;;;;;;;10.31;76.88;100860.28;5055052;28;20936;-83
2022/06/19 02:42:34;;;;;;;10.23;2.60;;;;;;;10.30;77.24;100863.91;5073974;28;20032;-83
2022/06/19 02:45:05;;;;;;;16.25;2.90;;;;;;;10.28;76.97;100865.81;5084486;28;20132;-82
2022/06/19 02:47:35;;;;;;;11.05;1.95;;;;;;;10.30;77.16;100871.81;5074844;28;20027;-83
2022/06/19 02:50:04;;;;;;;17.25;3.20;;;;;;;10.30;77.38;100858.63;5075016;28;20131;-84
2022/06/19 02:52:31;;;;;;;12.25;2.17;;;;;;;10.36;77.17;100852.81;5055017;28;20036;-84
2022/06/19 02:54:57;;;;;;;13.02;2.58;;;;;;;10.36;77.29;100841.38;5058246;28;20134;-83
2022/06/19 02:57:23;;;;;;;12.02;2.00;;;;;;;10.35;77.45;100837.88;5056097;28;20455;-83
2022/06/19 02:59:49;;;;;;;13.25;2.15;;;;;;;10.37;77.42;100837.75;5054487;28;20434;-82
2022/06/19 03:02:15;;;;;;;7.63;2.00;;;;;;;10.41;77.12;100845.31;4981127;28;20036;-83
2022/06/19 03:04:49;;;;;;;16.52;2.70;;;;;;;10.41;77.28;100847.97;5086615;28;20024;-82
2022/06/19 03:07:14;;;;;;;13.43;2.40;;;;;;;10.44;77.23;100849.47;5089593;28;20027;-82
2022/06/19 03:09:40;;;;;;;13.95;2.65;;;;;;;10.43;77.61;100839.91;5071762;28;20416;-82
2022/06/19 03:12:07;;;;;;;15.43;2.88;;;;;;;10.41;77.59;100840.03;5078319;28;20040;-83
2022/06/19 03:14:33;;;;;;;14.70;2.80;;;;;;;10.40;77.99;100840.16;5070608;28;20050;-83
2022/06/19 03:16:59;;;;;;;8.10;1.75;;;;;;;10.34;78.35;100840.66;5068819;28;20031;-83
2022/06/19 03:19:24;;;;;;;13.88;2.15;;;;;;;10.29;78.53;100828.69;5055208;28;20035;-82
2022/06/19 03:21:50;;;;;;;10.25;2.17;;;;;;;10.29;78.45;100823.41;5074383;28;20059;-83
2022/06/19 03:24:17;;;;;;;12.88;2.25;;;;;;;10.24;79.01;100830.91;5075343;28;20434;-83
2022/06/19 03:26:42;;;;;;;8.80;1.92;;;;;;;10.22;78.86;100830.22;5090077;28;20025;-83
2022/06/19 03:29:08;;;;;;;14.75;2.50;;;;;;;10.21;78.90;100833.81;5072512;28;20020;-82
2022/06/19 03:31:34;;;;;;;13.43;2.25;;;;;;;10.20;79.37;100826.84;5075073;28;20036;-82
2022/06/19 03:34:00;;;;;;;10.57;1.42;;;;;;;10.18;79.75;100828.78;5074408;28;20108;-83
2022/06/19 03:36:26;;;;;;;14.90;2.30;;;;;;;10.21;79.15;100833.00;5091268;28;20046;-82
2022/06/19 03:38:52;;;;;;;11.57;2.13;;;;;;;10.23;79.17;100836.31;5058241;28;20544;-83
2022/06/19 03:41:18;;;;;;;11.75;2.20;;;;;;;10.24;79.29;100835.38;5090624;28;20387;-82
2022/06/19 03:43:44;;;;;;;10.05;2.15;;;;;;;10.23;79.47;100823.09;5075192;28;20027;-83
2022/06/19 03:46:18;;;;;;;18.50;2.97;;;;;;;10.24;79.34;100822.16;5092115;28;20054;-83
2022/06/19 03:48:46;;;;;;;12.48;2.05;;;;;;;10.21;79.31;100810.03;5071291;28;20127;-82
2022/06/19 03:51:12;;;;;;;14.25;2.20;;;;;;;10.20;79.54;100799.59;5076513;28;20031;-82
2022/06/19 03:53:38;;;;;;;14.95;2.67;;;;;;;10.21;79.42;100798.66;5071003;28;20025;-83
2022/06/19 03:56:05;;;;;;;8.43;1.75;;;;;;;10.21;79.29;100793.38;5057361;28;20400;-83
2022/06/19 03:58:47;;;;;;;9.25;1.80;;;;;;;10.19;79.62;100785.56;5072064;28;20031;-82
2022/06/19 04:01:18;;;;;;;11.52;2.00;;;;;;;10.15;79.92;100781.50;5057656;28;20058;-83
2022/06/19 04:03:45;;;;;;;8.55;1.65;;;;;;;10.14;79.73;100780.69;5074716;28;20441;-83
2022/06/19 04:06:13;;;;;;;12.35;1.65;;;;;;;10.14;79.71;100772.78;5072499;28;20484;-83
2022/06/19 04:08:40;;;;;;;10.45;1.60;;;;;;;10.10;80.36;100766.06;5074340;28;20028;-83
2022/06/19 04:11:07;;;;;;;6.65;1.65;;;;;;;10.07;80.61;100753.13;5072568;28;20036;-84
2022/06/19 04:13:34;;;;;;;16.27;2.45;;;;;;;10.05;80.96;100760.34;5067257;28;20065;-84
2022/06/19 04:16:01;;;;;;;17.00;2.28;;;;;;;10.02;80.98;100742.13;5073070;28;20036;-84
2022/06/19 04:18:29;;;;;;;12.18;2.10;;;;;;;10.02;80.94;100757.97;5090986;28;20043;-84
2022/06/19 04:20:56;;;;;;;16.15;2.20;;;;;;;10.00;81.14;100744.88;5089476;28;20024;-83
2022/06/19 04:23:23;;;;;;;10.48;2.15;;;;;;;10.00;81.04;100741.44;5072078;28;20074;-83
2022/06/19 04:25:49;;;;;;;12.20;2.28;;;;;;;9.97;81.30;100731.13;5090150;28;20019;-83
2022/06/19 04:28:17;;;;;;;9.68;1.65;;;;;;;9.98;81.30;100724.88;5054444;28;20063;-82
2022/06/19 04:30:46;;;;;;;17.33;2.50;;;;;;;9.96;81.51;100727.66;5060976;28;20123;-84
2022/06/19 04:33:14;;;;;;;21.88;2.17;;;;;;;9.99;81.21;100726.53;5060572;28;20122;-83
2022/06/19 04:35:41;;;;;;;11.23;2.53;;;;;;;10.01;81.32;100728.09;5068197;28;20033;-82
2022/06/19 04:38:06;;;;;;;11.15;2.13;;;;;;;10.01;81.22;100740.44;5065319;28;20771;-83
2022/06/19 04:40:37;;;;;;;12.40;2.20;;;;;;;10.04;81.40;100732.25;5068472;28;20037;-83
2022/06/19 04:43:04;;;;;;;16.67;2.25;;;;;;;10.04;81.19;100732.25;5068304;28;20046;-83
2022/06/19 04:45:30;;;;;;;8.63;1.85;;;;;;;10.05;81.43;100726.84;5056178;28;20041;-83
2022/06/19 04:47:56;;;;;;;11.05;1.77;;;;;;;10.05;81.28;100728.63;5072894;28;20040;-83
2022/06/19 04:50:23;;;;;;;10.65;2.33;;;;;;;10.07;81.54;100728.50;5068393;28;20510;-83
2022/06/19 04:52:49;;;;;;;10.70;2.92;;;;;;;10.03;81.59;100728.78;5033717;28;20038;-83
2022/06/19 04:55:15;;;;;;;12.02;1.65;;;;;;;10.06;81.75;100732.97;5092327;28;20036;-83
2022/06/19 04:57:41;;;;;;;10.70;1.65;;;;;;;10.01;82.45;100732.53;5090946;28;20024;-82
2022/06/19 05:00:11;;;;;;;8.48;1.83;;;;;;;10.05;82.47;100736.56;5067627;28;20032;-83
2022/06/19 05:02:38;;;;;;;10.35;2.05;;;;;;;10.08;82.72;100725.72;5058270;28;20032;-83
2022/06/19 05:05:05;;;;;;;17.10;2.38;;;;;;;10.13;82.70;100722.72;5092435;28;20496;-83
2022/06/19 05:07:31;;;;;;;12.13;1.90;;;;;;;10.15;82.55;100715.47;5080397;28;20032;-83
2022/06/19 05:09:57;;;;;;;13.32;2.30;;;;;;;10.17;82.85;100709.09;5093130;28;20036;-83
2022/06/19 05:12:23;;;;;;;11.70;2.40;;;;;;;10.22;82.67;100710.50;5066977;28;20036;-83
2022/06/19 05:14:49;;;;;;;11.13;1.65;;;;;;;10.23;82.65;100712.16;5088548;28;20108;-83
2022/06/19 05:17:15;;;;;;;13.82;1.75;;;;;;;10.25;82.37;100720.78;5071709;28;20119;-82
2022/06/19 05:19:41;;;;;;;12.70;2.83;;;;;;;10.31;82.17;100728.16;5094122;28;20043;-82
2022/06/19 05:22:08;;;;;;;10.80;1.88;;;;;;;10.33;81.85;100738.59;5061496;28;20036;-82
2022/06/19 05:24:34;;;;;;;6.32;1.65;;;;;;;10.37;81.46;100740.00;5052907;28;20097;-83
2022/06/19 05:27:01;;;;;;;8.70;1.67;;;;;;;10.40;81.42;100745.03;5041330;28;20032;-82
2022/06/19 05:29:27;;;;;;;13.80;2.10;;;;;;;10.40;81.40;100752.97;5073923;28;20035;-82
2022/06/19 05:31:52;;;;;;;9.52;2.10;;;;;;;10.47;81.03;100761.19;5082920;28;20040;-82
2022/06/19 05:34:18;;;;;;;6.47;1.33;;;;;;;10.50;80.78;100764.41;5041209;28;20036;-83
2022/06/19 05:36:44;;;;;;;12.75;1.90;;;;;;;10.53;80.44;100766.78;5040913;28;20488;-83
2022/06/19 05:39:10;;;;;;;9.27;1.88;;;;;;;10.58;80.25;100776.09;5059092;28;20040;-83
2022/06/19 05:41:40;;;;;;;15.88;2.35;;;;;;;10.62;80.16;100774.88;5074474;28;20086;-85
2022/06/19 05:44:06;;;;;;;13.82;2.17;;;;;;;10.64;80.09;100797.53;5040131;28;20455;-85
2022/06/19 05:46:32;;;;;;;15.25;2.92;;;;;;;10.66;80.10;100795.59;5066410;28;20095;-83
2022/06/19 05:48:57;;;;;;;12.00;2.35;;;;;;;10.76;79.56;100802.72;5083321;28;20028;-82
2022/06/19 05:51:25;;;;;;;19.38;2.58;;;;;;;10.82;79.41;100806.59;5075212;28;20097;-82
2022/06/19 05:53:54;;;;;;;13.02;1.90;;;;;;;10.88;79.34;100811.34;5086398;28;20399;-82
2022/06/19 05:56:20;;;;;;;19.70;3.17;;;;;;;10.90;79.19;100807.63;5049746;28;20480;-83
2022/06/19 05:58:46;;;;;;;16.10;2.85;;;;;;;10.90;79.13;100818.19;5032243;28;20038;-83
2022/06/19 06:01:13;;;;;;;16.83;2.33;;;;;;;10.96;79.08;100837.13;5072693;28;20064;-83
2022/06/19 06:03:41;;;;;;;18.33;2.60;;;;;;;10.96;78.89;100840.59;5074609;28;20078;-83
2022/06/19 06:06:17;;;;;;;15.02;2.67;;;;;;;10.95;78.70;100844.22;5090483;28;20032;-83
2022/06/19 06:08:43;;;;;;;19.50;2.30;;;;;;;10.93;78.71;100843.53;5075581;28;20036;-82
2022/06/19 06:11:11;;;;;;;12.63;3.17;;;;;;;10.98;78.76;100851.03;5010779;28;20476;-82
2022/06/19 06:13:37;;;;;;;14.20;2.35;;;;;;;11.01;78.56;100858.69;5072078;28;20081;-82
2022/06/19 06:16:03;;;;;;;9.02;2.20;;;;;;;11.01;78.41;100851.59;5074003;28;20028;-83
2022/06/19 06:18:29;;;;;;;19.48;2.40;;;;;;;11.00;78.25;100865.81;5075522;28;20031;-83
2022/06/19 06:20:57;;;;;;;12.70;2.80;;;;;;;10.95;78.32;100857.44;5074875;28;20036;-82
2022/06/19 06:23:24;;;;;;;20.52;3.20;;;;;;;11.01;78.65;100858.69;5076922;28;20089;-83
2022/06/19 06:26:04;;;;;;;6.22;1.77;;;;;;;10.99;78.10;100858.03;5059278;28;20031;-83
2022/06/19 06:28:31;;;;;;;11.65;2.08;;;;;;;11.00;78.61;100863.19;5073774;28;20032;-83
2022/06/19 06:30:58;;;;;;;12.65;2.70;;;;;;;11.03;78.57;100851.47;5088262;28;20048;-82
2022/06/19 06:33:24;;;;;;;13.05;1.70;;;;;;;11.00;78.41;100851.75;5075136;28;20123;-83
2022/06/19 06:35:51;;;;;;;13.68;2.10;;;;;;;11.02;78.68;100840.03;5043019;28;20040;-83
2022/06/19 06:38:17;;;;;;;12.32;1.98;;;;;;;11.09;78.17;100842.13;5075586;28;20039;-82
2022/06/19 06:40:42;;;;;;;17.23;2.58;;;;;;;11.10;78.45;100849.94;5041287;28;20040;-83
2022/06/19 06:43:09;;;;;;;16.27;2.20;;;;;;;11.13;78.61;100835.63;5071241;28;20027;-83
2022/06/19 06:45:34;;;;;;;13.95;3.10;;;;;;;11.11;78.54;100834.91;5073125;28;20028;-82
2022/06/19 06:48:00;;;;;;;11.45;2.10;;;;;;;11.13;78.71;100831.13;5076186;28;20032;-83
2022/06/19 06:50:27;;;;;;;12.90;2.40;;;;;;;11.16;78.85;100827.41;5074770;28;20032;-83
2022/06/19 06:52:53;;;;;;;13.93;2.88;;;;;;;11.12;79.02;100818.91;5058351;28;20081;-83
2022/06/19 06:55:19;;;;;;;23.35;2.90;;;;;;;11.12;79.00;100820.69;5075888;28;20032;-86
2022/06/19 06:57:44;;;;;;;15.43;2.63;;;;;;;11.14;78.76;100816.97;5090786;28;20028;-84
2022/06/19 07:00:16;;;;;;;16.58;3.15;;;;;;;11.19;78.98;100816.53;5057371;28;20081;-83
2022/06/19 07:02:42;;;;;;;24.75;2.92;;;;;;;11.24;79.13;100830.19;5073382;28;20109;-82
2022/06/19 07:05:09;;;;;;;12.52;3.08;;;;;;;11.31;78.56;100829.63;5089923;28;20024;-83
2022/06/19 07:07:34;;;;;;;16.75;2.90;;;;;;;11.38;78.28;100836.03;5069261;28;20036;-83
2022/06/19 07:10:00;;;;;;;16.95;2.58;;;;;;;11.41;78.26;100825.16;5075816;28;20089;-82
2022/06/19 07:12:26;;;;;;;14.70;2.90;;;;;;;11.48;77.86;100834.19;5068759;28;20063;-83
2022/06/19 07:14:52;;;;;;;22.27;3.90;;;;;;;11.50;77.93;100831.41;5039641;28;20094;-83
2022/06/19 07:17:18;;;;;;;18.20;3.42;;;;;;;11.61;77.79;100841.03;5057953;28;20081;-83
2022/06/19 07:19:44;;;;;;;13.52;2.47;;;;;;;11.72;77.33;100859.41;5040496;28;20048;-83
2022/06/19 07:22:16;;;;;;;20.92;2.95;;;;;;;11.81;77.03;100863.03;5069503;28;20131;-83
2022/06/19 07:24:43;;;;;;;22.20;2.80;;;;;;;11.81;76.70;100855.06;5056151;28;20036;-83
2022/06/19 07:27:09;;;;;;;14.70;3.10;;;;;;;11.84;76.74;100857.44;5057356;28;20060;-83
2022/06/19 07:29:42;;;;;;;23.38;2.40;;;;;;;11.85;76.39;100845.84;5062346;28;20071;-84
2022/06/19 07:32:09;;;;;;;15.02;2.70;;;;;;;11.88;76.35;100840.28;5087901;28;20063;-83
2022/06/19 07:34:35;;;;;;;14.25;2.25;;;;;;;11.92;76.72;100843.47;5090748;28;20039;-83
2022/06/19 07:37:01;;;;;;;13.13;2.17;;;;;;;11.88;76.51;100848.22;5069531;28;20077;-82
2022/06/19 07:39:27;;;;;;;12.95;2.95;;;;;;;11.81;75.87;100841.84;5072460;28;20036;-83
2022/06/19 07:41:53;;;;;;;14.32;2.70;;;;;;;11.87;76.15;100838.63;5055564;28;20040;-83
2022/06/19 07:44:19;;;;;;;9.30;1.83;;;;;;;11.83;76.29;100841.69;5047534;28;20077;-82
2022/06/19 07:52:13;;;;;;;16.30;3.30;;;;;;;11.83;76.18;100824.00;5067421;28;20391;-83
2022/06/19 07:54:39;;;;;;;16.02;3.10;;;;;;;11.94;76.18;100824.78;5071365;28;20035;-83
2022/06/19 07:57:05;;;;;;;16.42;2.92;;;;;;;12.03;76.09;100818.63;5064960;28;20378;-83
2022/06/19 07:59:31;;;;;;;15.25;2.53;;;;;;;12.07;75.47;100824.47;5039469;28;20051;-83
2022/06/19 08:01:57;;;;;;;19.10;3.42;;;;;;;12.15;75.17;100829.94;5054331;28;20036;-83
2022/06/19 08:04:23;;;;;;;15.93;3.10;;;;;;;12.21;75.39;100828.50;5056060;28;20054;-82
2022/06/19 08:06:50;;;;;;;15.02;2.60;;;;;;;12.26;75.33;100823.59;5056261;28;20027;-83
2022/06/19 08:09:16;;;;;;;18.30;2.65;;;;;;;12.29;75.23;100823.31;5073135;28;20032;-83
2022/06/19 08:11:42;;;;;;;22.95;3.40;;;;;;;12.37;75.25;100825.22;5087942;28;20089;-83
2022/06/19 08:14:08;;;;;;;21.13;2.53;;;;;;;12.40;75.28;100814.31;5069522;28;20028;-83
2022/06/19 08:16:34;;;;;;;14.00;2.22;;;;;;;12.43;74.68;100818.50;5055334;28;20024;-83
2022/06/19 08:19:00;;;;;;;13.88;2.50;;;;;;;12.53;74.56;100806.03;5056207;28;20480;-83
2022/06/19 08:21:26;;;;;;;17.95;3.10;;;;;;;12.56;74.50;100800.44;5055249;28;20521;-84
2022/06/19 08:23:52;;;;;;;15.93;3.22;;;;;;;12.60;74.24;100804.44;5070402;28;20020;-83
2022/06/19 08:26:18;;;;;;;19.52;2.83;;;;;;;12.60;73.82;100806.25;5090626;28;20062;-84
2022/06/19 08:29:02;;;;;;;15.55;3.05;;;;;;;12.57;73.54;100804.75;5043250;28;20043;-84
2022/06/19 08:31:29;;;;;;;13.23;2.65;;;;;;;12.61;73.27;100797.34;5075411;28;20028;-83
2022/06/19 08:33:55;;;;;;;17.25;2.67;;;;;;;12.63;73.45;100800.66;5064033;28;20062;-83
2022/06/19 08:36:22;;;;;;;17.63;2.50;;;;;;;12.70;72.83;100792.94;5073872;28;20072;-82
2022/06/19 08:38:54;;;;;;;17.67;3.38;;;;;;;12.76;73.01;100802.94;5070376;28;20032;-82
2022/06/19 08:41:49;;;;;;;15.73;3.05;;;;;;;12.71;72.85;100790.13;5072143;28;20024;-83
2022/06/19 08:44:43;;;;;;;16.60;2.83;;;;;;;12.77;73.00;100805.44;5051322;28;20050;-83
2022/06/19 08:47:30;;;;;;;19.38;2.55;;;;;;;12.82;72.32;100802.34;5073407;28;20027;-84
2022/06/19 08:50:20;;;;;;;13.43;2.53;;;;;;;12.85;71.98;100798.56;5076586;28;20032;-84
2022/06/19 08:53:18;;;;;;;24.90;4.00;;;;;;;12.88;71.31;100801.72;5091401;28;20051;-83
2022/06/19 08:55:59;;;;;;;18.95;2.60;;;;;;;12.93;71.63;100796.00;5080191;28;20441;-83
2022/06/19 08:58:24;;;;;;;13.45;2.00;;;;;;;12.86;71.78;100800.22;5059117;28;20079;-83
2022/06/19 09:01:08;;;;;;;12.55;2.85;;;;;;;12.86;71.48;100794.94;5076438;28;20055;-84
2022/06/19 09:06:40;;;;;;;19.55;2.65;;;;;;;12.90;71.47;100778.56;5076262;28;20060;-82
2022/06/19 09:09:44;;;;;;;11.60;2.55;;;;;;;12.78;71.89;100777.97;5075541;28;20059;-83
2022/06/19 09:12:40;;;;;;;14.55;2.72;;;;;;;12.92;71.75;100783.72;4996691;28;20069;-84
2022/06/19 09:15:25;;;;;;;24.90;3.05;;;;;;;12.99;70.24;100791.91;5079975;28;20048;-83
2022/06/19 09:18:06;;;;;;;18.73;3.00;;;;;;;13.08;70.85;100798.94;5043518;28;20114;-82
2022/06/19 09:20:41;;;;;;;13.45;2.00;;;;;;;13.06;70.55;100798.25;5074404;28;20054;-82
2022/06/19 09:23:28;;;;;;;13.80;2.72;;;;;;;13.11;70.62;100808.41;5059384;28;20162;-83
2022/06/19 09:26:00;;;;;;;18.70;3.22;;;;;;;12.99;70.86;100813.97;5074063;28;20044;-82
2022/06/19 09:28:55;;;;;;;16.13;2.95;;;;;;;12.86;71.55;100824.09;5091103;28;20123;-83
2022/06/19 09:31:34;;;;;;;14.07;2.70;;;;;;;12.84;71.48;100829.56;5070499;28;20027;-84
2022/06/19 09:34:16;;;;;;;10.52;2.60;;;;;;;12.80;71.16;100816.75;5093347;28;20400;-85
2022/06/19 09:37:12;;;;;;;17.95;3.00;;;;;;;12.90;71.23;100818.34;5095402;28;20452;-83
2022/06/19 09:39:56;;;;;;;11.02;1.67;;;;;;;12.96;71.05;100822.22;5089484;28;20028;-83
2022/06/19 09:42:43;;;;;;;12.80;3.03;;;;;;;13.11;70.76;100829.66;5076209;28;20067;-83
2022/06/19 09:45:21;;;;;;;12.82;1.90;;;;;;;13.19;70.58;100819.13;5094158;28;20059;-84
2022/06/19 09:48:24;;;;;;;10.25;1.95;;;;;;;13.04;70.19;100840.06;5076063;28;20035;-85
2022/06/19 09:50:54;;;;;;;18.27;2.90;;;;;;;13.11;70.86;100837.59;5093532;28;20024;-83
2022/06/19 09:53:36;;;;;;;18.48;2.70;;;;;;;13.15;70.57;100839.00;5075327;28;20489;-83
2022/06/19 09:56:14;;;;;;;15.32;2.10;;;;;;;13.19;70.89;100848.31;5073568;28;20398;-83
2022/06/19 09:58:53;;;;;;;13.38;2.47;;;;;;;13.22;70.55;100847.19;5057889;28;20136;-83
2022/06/19 10:01:20;;;;;;;16.90;2.78;;;;;;;13.22;70.63;100849.84;5075235;28;20125;-83
2022/06/19 10:03:59;;;;;;;11.23;2.45;;;;;;;13.22;70.27;100863.94;5052175;28;20054;-82
2022/06/19 10:06:52;;;;;;;14.00;2.70;;;;;;;13.15;70.05;100857.56;5058786;28;20036;-83
2022/06/19 10:09:20;;;;;;;10.90;2.33;;;;;;;13.18;70.46;100861.72;5056461;28;20373;-83
2022/06/19 10:11:48;;;;;;;10.40;2.10;;;;;;;13.14;70.33;100850.56;5074500;28;20078;-83
2022/06/19 10:14:30;;;;;;;10.10;2.17;;;;;;;13.11;70.01;100856.19;5057825;28;20082;-82
2022/06/19 10:17:04;;;;;;;10.45;2.13;;;;;;;13.13;70.34;100854.22;5090286;28;20031;-82
2022/06/19 10:19:47;;;;;;;12.02;1.95;;;;;;;13.17;70.37;100858.22;5052893;28;20063;-82
2022/06/19 10:22:38;;;;;;;9.85;1.92;;;;;;;13.13;70.49;100852.41;5084891;28;20035;-83
2022/06/19 10:25:24;;;;;;;15.82;2.20;;;;;;;13.12;70.91;100852.56;5092079;28;20035;-85
2022/06/19 10:28:22;;;;;;;12.38;2.25;;;;;;;13.02;71.20;100856.13;5075813;28;20103;-85
2022/06/19 10:31:10;;;;;;;10.32;1.63;;;;;;;12.97;70.86;100857.53;5048468;28;20396;-83
2022/06/19 10:34:05;;;;;;;9.80;2.30;;;;;;;13.13;72.08;100847.09;5046957;28;20131;-82
2022/06/19 10:36:44;;;;;;;15.55;2.67;;;;;;;13.37;71.33;100844.81;5038299;28;20052;-83
2022/06/19 10:39:42;;;;;;;14.98;2.38;;;;;;;13.58;71.05;100847.19;5091781;28;20036;-83
2022/06/19 10:42:20;;;;;;;15.10;2.47;;;;;;;13.74;70.44;100846.44;5080564;28;20035;-83
2022/06/19 10:45:02;;;;;;;13.27;1.63;;;;;;;13.75;69.53;100837.50;5058226;28;20036;-83
2022/06/19 10:47:46;;;;;;;6.28;2.05;;;;;;;13.74;69.30;100841.13;5074468;28;20035;-84
2022/06/19 10:50:12;;;;;;;8.93;1.63;;;;;;;13.67;68.94;100845.41;5073814;28;20392;-84
2022/06/19 10:52:40;;;;;;;6.60;1.73;;;;;;;13.66;68.70;100840.25;5073628;28;20024;-83
2022/06/19 10:55:16;;;;;;;8.93;1.58;;;;;;;13.70;68.50;100825.66;5051504;28;20119;-83
2022/06/19 10:58:06;;;;;;;14.00;2.72;;;;;;;13.90;68.62;100828.97;5070463;28;20040;-83
2022/06/19 11:00:32;;;;;;;7.13;1.15;;;;;;;14.09;68.40;100835.06;5064457;28;20443;-82
2022/06/19 11:06:06;;;;;;;6.97;1.30;;;;;;;14.11;67.38;100846.38;5091428;28;20035;-83
2022/06/19 11:08:35;;;;;;;7.32;1.73;;;;;;;13.96;67.53;100843.44;5073596;28;20500;-83
2022/06/19 11:11:02;;;;;;;14.48;2.80;;;;;;;13.93;68.00;100844.59;5058376;28;20037;-83
2022/06/19 11:13:56;;;;;;;6.63;1.10;;;;;;;13.88;67.50;100839.75;5082716;28;20032;-83
2022/06/19 11:16:22;;;;;;;7.57;1.58;;;;;;;13.92;67.91;100821.66;5072964;28;20024;-83
2022/06/19 11:18:50;;;;;;;6.97;1.25;;;;;;;13.91;68.12;100825.31;5075599;28;20034;-84
2022/06/19 11:21:20;;;;;;;7.68;1.83;;;;;;;13.94;68.34;100827.66;5056503;28;20403;-83
2022/06/19 11:23:49;;;;;;;9.50;1.42;;;;;;;14.01;68.08;100822.56;5072523;28;20112;-84
2022/06/19 11:26:17;;;;;;;7.20;1.38;;;;;;;13.94;67.14;100817.03;5073966;28;20036;-84
2022/06/19 11:29:07;;;;;;;8.02;1.40;;;;;;;13.99;67.07;100822.72;5075100;28;20038;-83
2022/06/19 11:31:39;;;;;;;5.07;0.90;;;;;;;14.02;67.31;100825.06;5039495;28;20043;-83
2022/06/19 11:37:17;;;;;;;8.43;1.27;;;;;;;14.09;67.32;100837.72;5071529;28;20032;-84
2022/06/19 11:39:57;;;;;;;10.25;1.60;;;;;;;14.20;67.59;100831.28;5034246;28;20158;-83
2022/06/19 11:42:53;;;;;;;16.48;2.90;;;;;;;14.13;67.54;100837.22;5064225;28;20040;-84
2022/06/19 11:45:18;;;;;;;7.70;1.73;;;;;;;14.13;68.26;100839.03;5069211;28;20035;-83
2022/06/19 11:47:57;;;;;;;12.60;1.45;;;;;;;14.25;68.51;100835.13;5055339;28;20032;-83
2022/06/19 11:50:32;;;;;;;9.43;1.80;;;;;;;14.41;68.39;100840.69;5055367;28;20024;-86
2022/06/19 11:53:05;;;;;;;12.27;1.30;;;;;;;14.52;68.01;100830.56;5051782;28;20028;-85